Time;durP1;ratioP1;P1;durP2;ratioP2;P2;SDS_P1;SDS_P2;PMS_P1;PMS_P2;Temp;Humidity;BMP_temperature;BMP_pressure;BME280_temperature;BME280_humidity;BME280_pressure;Samples;Min_cycle;Max_cycle;Signal;HPM_P1;HPM_P2
2023/09/18 00:00:22;;;;;;;13.13;7.75;;;;;;;18.42;90.81;95307.75;4769158;30;20277;-70
2023/09/18 00:02:48;;;;;;;15.20;9.97;;;;;;;18.53;91.08;95302.53;4784046;29;20436;-70
2023/09/18 00:05:15;;;;;;;14.65;8.98;;;;;;;18.44;90.34;95287.00;4795296;29;20472;-70
2023/09/18 00:07:42;;;;;;;15.68;9.88;;;;;;;18.54;90.44;95304.16;4802006;29;20912;-70
2023/09/18 00:10:09;;;;;;;12.45;8.73;;;;;;;18.46;90.13;95282.22;4803008;29;20183;-70
2023/09/18 00:12:34;;;;;;;11.57;7.55;;;;;;;18.54;89.57;95290.81;4802933;29;20249;-70
2023/09/18 00:14:59;;;;;;;14.30;10.50;;;;;;;18.57;89.39;95301.03;4802205;29;20455;-70
2023/09/18 00:17:25;;;;;;;11.77;8.57;;;;;;;18.55;89.69;95300.44;4802793;29;20207;-70
2023/09/18 00:19:51;;;;;;;14.17;8.93;;;;;;;18.47;89.72;95297.16;4801864;29;20798;-70
2023/09/18 00:22:17;;;;;;;12.13;8.52;;;;;;;18.34;89.02;95270.06;4802920;29;20720;-70
2023/09/18 00:24:42;;;;;;;11.38;8.73;;;;;;;18.52;88.59;95290.25;4803081;29;20270;-70
2023/09/18 00:27:07;;;;;;;13.40;8.25;;;;;;;18.55;88.64;95303.13;4802910;29;20188;-70
2023/09/18 00:29:33;;;;;;;14.98;8.20;;;;;;;18.54;88.31;95302.31;4806345;29;20525;-70
2023/09/18 00:31:58;;;;;;;14.93;10.35;;;;;;;18.54;88.77;95306.81;4808957;29;20213;-70
2023/09/18 00:34:24;;;;;;;22.30;12.27;;;;;;;18.44;89.04;95279.00;4808933;29;20206;-70
2023/09/18 00:36:49;;;;;;;14.68;10.98;;;;;;;18.57;88.72;95301.03;4808872;29;20570;-70
2023/09/18 00:39:15;;;;;;;21.50;10.45;;;;;;;18.55;88.54;95308.44;4809016;29;20187;-70
2023/09/18 00:41:41;;;;;;;14.48;9.95;;;;;;;18.34;88.75;95310.84;4805297;29;20237;-70
2023/09/18 00:44:06;;;;;;;15.98;11.27;;;;;;;18.21;89.19;95287.25;4790778;29;20194;-70
2023/09/18 00:46:33;;;;;;;18.52;11.77;;;;;;;18.28;89.83;95303.84;4790762;29;20184;-70
2023/09/18 00:48:58;;;;;;;17.15;11.75;;;;;;;18.33;89.72;95309.28;4790769;30;20188;-70
2023/09/18 00:51:24;;;;;;;16.38;11.35;;;;;;;18.33;90.46;95309.28;4790572;29;20184;-71
2023/09/18 00:53:50;;;;;;;14.35;11.25;;;;;;;18.35;89.75;95311.66;4790691;29;20624;-70
2023/09/18 00:56:15;;;;;;;17.10;13.03;;;;;;;18.23;90.52;95306.47;4789812;29;20440;-70
2023/09/18 00:58:41;;;;;;;20.55;13.77;;;;;;;18.32;90.13;95318.31;4790634;29;20257;-71
2023/09/18 01:01:08;;;;;;;16.00;12.63;;;;;;;18.31;90.66;95313.22;4790246;29;20475;-70
2023/09/18 01:03:34;;;;;;;14.82;10.80;;;;;;;18.22;89.98;95301.38;4790598;30;20203;-70
2023/09/18 01:06:01;;;;;;;15.70;10.60;;;;;;;18.32;88.86;95315.66;4790518;29;20192;-70
2023/09/18 01:08:26;;;;;;;13.57;10.32;;;;;;;18.33;88.53;95324.47;4790557;29;20212;-70
2023/09/18 01:11:00;;;;;;;15.40;11.52;;;;;;;18.31;88.33;95326.56;4790471;29;20271;-70
2023/09/18 01:13:52;;;;;;;19.73;12.43;;;;;;;18.26;88.26;95326.47;4790461;29;20512;-70
2023/09/18 01:16:25;;;;;;;18.90;11.43;;;;;;;18.24;88.26;95321.41;4784546;29;20220;-70
2023/09/18 01:18:51;;;;;;;30.23;14.65;;;;;;;18.20;88.48;95324.81;4790343;30;20188;-70
2023/09/18 01:21:19;;;;;;;18.15;12.93;;;;;;;18.16;88.57;95321.84;4790500;29;20183;-70
2023/09/18 01:23:45;;;;;;;20.20;14.52;;;;;;;18.08;88.96;95320.38;4790372;29;20183;-70
2023/09/18 01:26:10;;;;;;;21.10;11.90;;;;;;;18.03;89.21;95322.19;4790466;29;20184;-70
2023/09/18 01:28:35;;;;;;;19.55;11.40;;;;;;;17.96;88.78;95318.88;4790484;29;20188;-70
2023/09/18 01:31:01;;;;;;;17.75;13.05;;;;;;;17.87;89.38;95320.34;4790442;29;20267;-70
2023/09/18 01:33:28;;;;;;;17.15;12.38;;;;;;;17.69;89.78;95303.59;4799865;29;20208;-70
2023/09/18 01:35:55;;;;;;;18.60;12.50;;;;;;;17.75;90.16;95317.78;4792284;29;20632;-70
2023/09/18 01:38:22;;;;;;;22.60;13.30;;;;;;;17.75;90.17;95319.63;4808445;29;20187;-70
2023/09/18 01:40:48;;;;;;;21.13;11.88;;;;;;;17.64;89.97;95308.81;4805897;29;20188;-70
2023/09/18 01:43:13;;;;;;;16.73;10.40;;;;;;;17.68;89.84;95317.13;4805735;29;20190;-70
2023/09/18 01:45:39;;;;;;;17.25;12.00;;;;;;;17.67;90.13;95316.34;4789433;29;20186;-70
2023/09/18 01:48:06;;;;;;;17.85;11.88;;;;;;;17.65;89.89;95328.25;4805461;29;20544;-70
2023/09/18 01:50:31;;;;;;;18.60;11.27;;;;;;;17.62;90.08;95321.59;4805396;29;20183;-70
2023/09/18 01:52:58;;;;;;;20.88;11.82;;;;;;;17.57;89.99;95315.34;4789050;29;20196;-70
2023/09/18 01:55:24;;;;;;;16.50;11.27;;;;;;;17.63;89.98;95312.56;4805277;29;20199;-70
2023/09/18 01:57:49;;;;;;;14.70;11.10;;;;;;;17.65;89.89;95317.63;4805438;29;20188;-70
2023/09/18 02:00:15;;;;;;;17.25;11.35;;;;;;;17.66;89.65;95320.03;4805127;29;20199;-70
2023/09/18 02:02:40;;;;;;;12.43;9.23;;;;;;;17.68;89.31;95320.59;4805120;29;20660;-70
2023/09/18 02:05:06;;;;;;;18.73;11.93;;;;;;;17.61;89.16;95314.63;4805160;29;20562;-71
2023/09/18 02:07:31;;;;;;;15.57;11.63;;;;;;;17.63;89.50;95325.88;4788808;29;20184;-70
2023/09/18 02:09:57;;;;;;;15.45;11.88;;;;;;;17.60;89.30;95328.16;4805117;29;20187;-70
2023/09/18 02:12:23;;;;;;;15.95;11.00;;;;;;;17.60;89.56;95325.50;4804859;29;20619;-71
2023/09/18 02:14:48;;;;;;;17.63;11.35;;;;;;;17.58;89.61;95327.59;4805132;29;20685;-71
2023/09/18 02:17:13;;;;;;;15.93;10.85;;;;;;;17.53;89.89;95316.88;4804969;29;20188;-70
2023/09/18 02:19:39;;;;;;;13.75;11.50;;;;;;;17.65;90.22;95331.75;4804723;29;20199;-71
2023/09/18 02:22:04;;;;;;;14.38;11.18;;;;;;;17.63;90.24;95325.88;4804782;29;20228;-71
2023/09/18 02:24:30;;;;;;;16.75;12.13;;;;;;;17.62;89.65;95332.25;4804769;29;20200;-70
2023/09/18 02:26:55;;;;;;;17.80;11.38;;;;;;;17.63;89.55;95325.88;4804721;29;20256;-70
2023/09/18 02:29:21;;;;;;;18.55;11.73;;;;;;;17.60;89.82;95320.19;4804798;29;20194;-71
2023/09/18 02:31:46;;;;;;;15.32;12.10;;;;;;;17.61;89.52;95327.94;4788514;29;20543;-71
2023/09/18 02:34:11;;;;;;;16.00;11.80;;;;;;;17.54;89.58;95329.16;4804539;29;20204;-71
2023/09/18 02:36:37;;;;;;;19.08;11.02;;;;;;;17.48;89.86;95322.91;4804682;29;20233;-71
2023/09/18 02:39:02;;;;;;;18.02;11.25;;;;;;;17.51;89.63;95324.28;4804424;29;20207;-71
2023/09/18 02:41:28;;;;;;;17.23;11.23;;;;;;;17.39;89.27;95310.25;4804363;29;20672;-70
2023/09/18 02:43:53;;;;;;;17.40;10.50;;;;;;;17.45;90.26;95323.41;4804163;29;20187;-70
2023/09/18 02:46:19;;;;;;;17.10;12.40;;;;;;;17.44;90.34;95327.13;4804351;29;20677;-70
2023/09/18 02:48:44;;;;;;;16.80;10.68;;;;;;;17.42;89.91;95326.56;4804364;29;20192;-70
2023/09/18 02:51:10;;;;;;;16.38;10.98;;;;;;;17.39;89.67;95324.38;4804234;29;20279;-71
2023/09/18 02:53:35;;;;;;;15.85;11.00;;;;;;;17.26;90.06;95314.84;4803866;29;20200;-71
2023/09/18 02:56:01;;;;;;;18.95;10.85;;;;;;;17.37;90.27;95329.16;4804197;29;20184;-70
2023/09/18 02:58:29;;;;;;;17.83;11.80;;;;;;;17.40;90.53;95333.97;4803812;29;20198;-71
2023/09/18 03:00:55;;;;;;;19.38;11.60;;;;;;;17.40;90.21;95331.31;4803751;29;20184;-71
2023/09/18 03:03:21;;;;;;;16.02;11.57;;;;;;;17.24;90.97;95308.16;4803772;29;20100;-71
2023/09/18 03:05:46;;;;;;;14.05;10.10;;;;;;;17.39;90.89;95339.53;4803805;29;20196;-71
2023/09/18 03:08:13;;;;;;;15.77;10.80;;;;;;;17.35;90.44;95333.91;4803549;29;20180;-71
2023/09/18 03:10:40;;;;;;;15.23;11.25;;;;;;;17.34;90.62;95337.59;4803623;29;20659;-70
2023/09/18 03:13:07;;;;;;;15.65;10.48;;;;;;;17.31;90.65;95330.09;4803411;29;20236;-71
2023/09/18 03:15:33;;;;;;;15.00;11.25;;;;;;;17.33;91.08;95328.00;4803743;29;20188;-71
2023/09/18 03:18:00;;;;;;;20.05;11.05;;;;;;;17.33;90.72;95328.00;4803894;29;20673;-70
2023/09/18 03:20:27;;;;;;;15.23;11.63;;;;;;;17.33;90.93;95330.66;4803768;29;20247;-71
2023/09/18 03:22:55;;;;;;;14.88;10.70;;;;;;;17.41;91.32;95330.25;4795553;29;20185;-71
2023/09/18 03:25:21;;;;;;;18.65;11.88;;;;;;;17.36;91.23;95324.88;4784127;29;20572;-71
2023/09/18 03:27:47;;;;;;;15.07;10.18;;;;;;;17.36;91.04;95327.53;4785332;29;20200;-71
2023/09/18 03:30:15;;;;;;;16.85;11.48;;;;;;;17.42;91.98;95326.56;4784762;29;20452;-71
2023/09/18 03:32:42;;;;;;;14.93;10.23;;;;;;;17.46;92.10;95321.56;4785284;29;20195;-70
2023/09/18 03:35:09;;;;;;;14.10;10.37;;;;;;;17.47;92.06;95315.97;4784545;29;20452;-70
2023/09/18 03:37:35;;;;;;;18.70;11.40;;;;;;;17.49;92.35;95318.41;4784604;29;20437;-69
2023/09/18 03:40:01;;;;;;;17.77;10.70;;;;;;;17.52;91.92;95317.94;4785183;29;20643;-69
2023/09/18 03:42:27;;;;;;;15.80;10.60;;;;;;;17.59;91.66;95310.56;4785179;30;20288;-70
2023/09/18 03:44:52;;;;;;;15.63;11.10;;;;;;;17.63;91.30;95317.06;4785381;29;20660;-70
2023/09/18 03:47:17;;;;;;;15.93;10.13;;;;;;;17.64;91.09;95308.03;4785274;29;20188;-70
2023/09/18 03:49:43;;;;;;;15.27;10.50;;;;;;;17.67;91.30;95305.69;4785198;29;20268;-70
2023/09/18 03:52:08;;;;;;;18.65;10.88;;;;;;;17.71;90.91;95308.69;4785206;30;20273;-70
2023/09/18 03:54:34;;;;;;;18.30;11.43;;;;;;;17.67;91.46;95302.22;4769537;29;20444;-70
2023/09/18 03:56:59;;;;;;;15.80;12.38;;;;;;;17.67;90.77;95294.22;4768143;29;20460;-70
2023/09/18 03:59:24;;;;;;;15.20;11.40;;;;;;;17.78;90.80;95309.31;4785162;29;20657;-70
2023/09/18 04:01:50;;;;;;;18.47;11.70;;;;;;;17.75;90.54;95304.47;4784419;29;20520;-70
2023/09/18 04:04:15;;;;;;;15.77;11.67;;;;;;;17.73;90.53;95302.03;4784374;29;20432;-70
2023/09/18 04:06:43;;;;;;;17.60;11.63;;;;;;;17.64;90.77;95300.06;4785163;29;20641;-71
2023/09/18 04:09:09;;;;;;;21.58;12.68;;;;;;;17.63;90.93;95304.56;4784731;29;20447;-70
2023/09/18 04:11:35;;;;;;;16.70;12.93;;;;;;;17.56;91.79;95303.88;4783837;29;20791;-72
2023/09/18 04:14:01;;;;;;;16.30;12.35;;;;;;;17.58;91.39;95298.31;4784835;29;20412;-70
2023/09/18 04:16:37;;;;;;;20.25;12.23;;;;;;;17.62;91.10;95318.13;4784826;30;20188;-71
2023/09/18 04:19:03;;;;;;;18.13;11.27;;;;;;;17.59;90.88;95314.03;4785381;29;20934;-71
2023/09/18 04:21:29;;;;;;;17.90;13.23;;;;;;;17.37;91.82;95299.88;4783955;29;20461;-71
2023/09/18 04:23:57;;;;;;;24.95;12.88;;;;;;;17.35;91.45;95301.97;4782974;29;20188;-71
2023/09/18 04:26:29;;;;;;;17.00;11.07;;;;;;;17.52;91.52;95323.25;4785030;29;20702;-71
2023/09/18 04:28:55;;;;;;;18.08;13.40;;;;;;;17.53;91.66;95335.53;4785263;29;20438;-71
2023/09/18 04:31:21;;;;;;;21.05;12.52;;;;;;;17.55;91.60;95333.44;4785018;29;20227;-71
2023/09/18 04:33:46;;;;;;;21.08;12.95;;;;;;;17.57;91.54;95326.78;4787110;29;20236;-71
2023/09/18 04:36:12;;;;;;;17.05;12.27;;;;;;;17.61;91.81;95335.13;4784965;29;20606;-70
2023/09/18 04:38:37;;;;;;;18.20;12.93;;;;;;;17.66;90.93;95337.88;4785093;30;20264;-70
2023/09/18 04:41:02;;;;;;;24.83;13.50;;;;;;;17.67;91.11;95337.63;4784921;29;20184;-70
2023/09/18 04:43:31;;;;;;;21.20;13.23;;;;;;;17.69;91.41;95332.88;4796545;29;20184;-70
2023/09/18 04:45:56;;;;;;;26.20;14.70;;;;;;;17.75;91.22;95327.63;4784218;30;20207;-70
2023/09/18 04:48:21;;;;;;;23.73;13.93;;;;;;;17.82;90.86;95328.25;4784860;29;20630;-70
2023/09/18 04:50:48;;;;;;;19.08;12.82;;;;;;;17.80;91.15;95333.03;4783702;30;20323;-70
2023/09/18 04:53:14;;;;;;;22.77;12.27;;;;;;;17.84;91.22;95328.81;4784513;29;20193;-70
2023/09/18 04:55:39;;;;;;;22.52;13.85;;;;;;;17.90;91.02;95330.53;4783407;30;20195;-70
2023/09/18 04:58:05;;;;;;;19.98;12.18;;;;;;;17.95;90.03;95328.72;4783420;30;20196;-70
2023/09/18 05:00:31;;;;;;;27.35;13.10;;;;;;;17.85;90.27;95306.47;4784960;29;20185;-70
2023/09/18 05:03:01;;;;;;;21.10;12.38;;;;;;;18.08;90.44;95332.91;4784649;29;20241;-69
2023/09/18 05:05:26;;;;;;;18.45;11.80;;;;;;;18.17;89.39;95333.28;4785270;29;20184;-70
2023/09/18 05:07:53;;;;;;;28.88;13.98;;;;;;;18.25;89.66;95332.88;4790735;29;20716;-70
2023/09/18 05:10:19;;;;;;;21.38;13.68;;;;;;;18.40;89.00;95327.75;4792379;29;20226;-70
2023/09/18 05:12:45;;;;;;;17.98;11.80;;;;;;;18.51;88.67;95332.13;4792219;29;20662;-70
2023/09/18 05:15:12;;;;;;;18.83;11.85;;;;;;;18.67;88.17;95331.31;4786383;29;20732;-69
2023/09/18 05:17:52;;;;;;;18.42;11.75;;;;;;;18.75;87.20;95338.06;4795941;29;20259;-69
2023/09/18 05:20:18;;;;;;;22.00;12.30;;;;;;;18.87;86.84;95336.03;4797857;29;20204;-69
2023/09/18 05:22:44;;;;;;;18.33;12.00;;;;;;;19.06;86.20;95339.19;4790533;29;20215;-69
2023/09/18 05:25:10;;;;;;;19.70;10.73;;;;;;;19.17;85.41;95341.72;4794563;29;20195;-69
2023/09/18 05:27:43;;;;;;;16.42;11.75;;;;;;;19.31;85.10;95346.63;4789243;29;20223;-69
2023/09/18 05:30:15;;;;;;;16.88;11.52;;;;;;;19.47;84.25;95345.69;4787617;29;20185;-69
2023/09/18 05:32:41;;;;;;;17.38;11.57;;;;;;;19.52;82.99;95356.47;4788118;29;20658;-69
2023/09/18 05:35:09;;;;;;;19.27;12.05;;;;;;;19.52;82.81;95348.47;4786705;29;20212;-69
2023/09/18 05:37:36;;;;;;;18.35;12.05;;;;;;;19.53;82.79;95345.53;4786853;29;20180;-69
2023/09/18 05:40:04;;;;;;;18.52;12.27;;;;;;;19.32;83.17;95353.59;4786996;29;20192;-69
2023/09/18 05:42:29;;;;;;;21.45;13.38;;;;;;;19.34;82.98;95335.44;4786815;30;20192;-69
2023/09/18 05:44:55;;;;;;;16.92;11.38;;;;;;;19.50;83.06;95351.38;4786905;29;20413;-69
2023/09/18 05:47:22;;;;;;;20.00;12.07;;;;;;;19.60;83.21;95348.00;4786809;29;20263;-69
2023/09/18 05:49:47;;;;;;;20.52;11.60;;;;;;;19.73;81.73;95362.78;4787500;29;20197;-69
2023/09/18 05:52:12;;;;;;;20.05;12.55;;;;;;;19.63;81.83;95360.84;4790564;29;20650;-69
2023/09/18 05:54:38;;;;;;;17.33;12.07;;;;;;;19.42;82.32;95353.69;4789684;29;20215;-69
2023/09/18 05:57:03;;;;;;;16.95;10.95;;;;;;;19.42;82.69;95356.34;4792703;29;20300;-69
2023/09/18 05:59:28;;;;;;;16.80;12.20;;;;;;;19.41;82.51;95350.19;4791911;29;20995;-69
2023/09/18 06:01:54;;;;;;;19.35;11.43;;;;;;;19.28;82.15;95352.50;4786984;30;20181;-68
2023/09/18 06:04:19;;;;;;;18.00;11.43;;;;;;;19.03;83.77;95347.69;4786944;30;20672;-69
2023/09/18 06:06:46;;;;;;;20.25;12.95;;;;;;;19.03;84.00;95347.69;4786154;29;20241;-69
2023/09/18 06:09:11;;;;;;;19.58;12.27;;;;;;;19.08;83.99;95348.56;4785917;29;20189;-69
2023/09/18 06:11:37;;;;;;;15.13;11.95;;;;;;;19.22;83.98;95357.75;4786629;29;20203;-69
2023/09/18 06:14:02;;;;;;;18.35;12.55;;;;;;;19.23;83.25;95347.88;4786135;29;20748;-69
2023/09/18 06:16:27;;;;;;;23.05;13.68;;;;;;;19.23;83.18;95351.38;4786708;29;20192;-69
2023/09/18 06:18:55;;;;;;;18.63;13.15;;;;;;;19.28;82.99;95347.16;4803776;29;20236;-69
2023/09/18 06:21:21;;;;;;;24.20;13.25;;;;;;;19.31;83.56;95358.13;4804730;29;20188;-69
2023/09/18 06:23:46;;;;;;;20.48;12.20;;;;;;;19.43;82.49;95358.78;4804523;29;20187;-69
2023/09/18 06:26:12;;;;;;;21.30;13.32;;;;;;;19.37;82.50;95343.75;4804367;29;20195;-69
2023/09/18 06:28:38;;;;;;;21.63;12.40;;;;;;;19.52;81.65;95359.94;4804438;29;20644;-68
2023/09/18 06:31:03;;;;;;;20.75;12.77;;;;;;;19.57;82.32;95364.53;4804666;29;20207;-68
2023/09/18 06:33:30;;;;;;;18.83;12.50;;;;;;;19.62;81.99;95353.09;4804633;29;20692;-69
2023/09/18 06:35:55;;;;;;;26.60;13.07;;;;;;;19.86;82.03;95362.34;4804735;29;20579;-69
2023/09/18 06:38:20;;;;;;;20.20;12.73;;;;;;;20.01;81.95;95359.78;4804885;29;20187;-69
2023/09/18 06:40:46;;;;;;;19.83;12.65;;;;;;;20.16;81.66;95354.53;4804753;29;20195;-68
2023/09/18 06:43:12;;;;;;;25.10;12.80;;;;;;;20.33;80.40;95359.72;4804448;29;20274;-68
2023/09/18 06:45:38;;;;;;;18.40;13.15;;;;;;;20.49;80.43;95361.47;4804342;29;20758;-69
2023/09/18 06:48:04;;;;;;;20.13;12.32;;;;;;;20.65;78.13;95363.13;4804435;29;20192;-68
2023/09/18 06:50:30;;;;;;;17.27;12.23;;;;;;;20.67;77.33;95358.31;4804255;29;20192;-68
2023/09/18 06:52:55;;;;;;;16.60;11.32;;;;;;;20.67;77.17;95360.16;4804144;29;20187;-68
2023/09/18 06:55:21;;;;;;;21.27;12.20;;;;;;;20.72;77.71;95360.22;4804153;29;20650;-68
2023/09/18 06:57:48;;;;;;;21.15;11.10;;;;;;;20.76;77.84;95363.97;4804265;29;20199;-68
2023/09/18 07:00:20;;;;;;;17.80;11.90;;;;;;;20.79;78.23;95357.28;4804265;29;20215;-67
2023/09/18 07:02:45;;;;;;;15.95;11.07;;;;;;;20.86;77.18;95360.53;4803928;29;20180;-68
2023/09/18 07:05:11;;;;;;;14.88;10.73;;;;;;;20.88;76.62;95361.88;4787821;29;20194;-68
2023/09/18 07:07:36;;;;;;;20.85;10.68;;;;;;;20.83;76.67;95342.31;4803837;29;20592;-68
2023/09/18 07:10:02;;;;;;;15.00;8.95;;;;;;;21.04;75.35;95350.13;4803842;29;20187;-68
2023/09/18 07:12:28;;;;;;;16.83;10.18;;;;;;;21.17;74.97;95366.78;4803532;29;20604;-68
2023/09/18 07:14:53;;;;;;;19.13;10.65;;;;;;;21.16;75.49;95365.97;4803756;29;20227;-68
2023/09/18 07:17:18;;;;;;;16.23;10.45;;;;;;;21.40;74.70;95355.59;4793140;29;20562;-69
2023/09/18 07:19:44;;;;;;;16.15;10.23;;;;;;;21.42;73.80;95346.25;4785559;29;20192;-69
2023/09/18 07:22:09;;;;;;;16.02;10.30;;;;;;;21.55;73.10;95371.69;4785509;29;20188;-69
2023/09/18 07:24:40;;;;;;;16.75;10.15;;;;;;;21.56;73.69;95370.63;4785528;29;20670;-69
2023/09/18 07:27:06;;;;;;;14.38;9.95;;;;;;;21.75;73.45;95373.59;4785595;29;20185;-69
2023/09/18 07:29:31;;;;;;;16.17;10.07;;;;;;;22.31;73.74;95381.63;4785831;30;20211;-69
2023/09/18 07:31:56;;;;;;;17.35;10.02;;;;;;;22.74;69.86;95385.53;4785562;29;20193;-69
2023/09/18 07:34:22;;;;;;;17.70;9.77;;;;;;;22.76;68.79;95370.78;4785490;29;20662;-69
2023/09/18 07:36:47;;;;;;;12.73;9.88;;;;;;;23.23;69.58;95373.00;4785752;29;20212;-69
2023/09/18 07:39:13;;;;;;;17.58;9.60;;;;;;;23.66;66.57;95384.03;4784802;29;20249;-69
2023/09/18 07:41:39;;;;;;;13.07;9.98;;;;;;;23.48;66.06;95371.22;4785456;30;20184;-69
2023/09/18 07:44:05;;;;;;;14.63;9.25;;;;;;;23.36;66.38;95381.50;4785407;29;20197;-69
2023/09/18 07:46:30;;;;;;;18.63;10.07;;;;;;;23.49;66.45;95379.03;4785386;29;20180;-69
2023/09/18 07:48:55;;;;;;;12.90;8.88;;;;;;;23.75;65.38;95376.97;4785620;29;20180;-69
2023/09/18 07:51:21;;;;;;;16.95;9.38;;;;;;;24.19;64.46;95382.25;4785206;29;20285;-69
2023/09/18 07:53:46;;;;;;;12.90;8.63;;;;;;;24.35;63.63;95375.69;4785156;29;20680;-69
2023/09/18 07:56:12;;;;;;;14.63;9.50;;;;;;;24.52;62.32;95369.06;4785252;29;20244;-69
2023/09/18 07:58:38;;;;;;;14.35;9.70;;;;;;;24.85;62.69;95372.72;4785385;29;20184;-69
2023/09/18 08:01:05;;;;;;;15.70;10.10;;;;;;;25.04;62.51;95379.78;4785290;29;20187;-69
2023/09/18 08:03:31;;;;;;;13.98;10.48;;;;;;;25.45;61.48;95376.53;4769170;29;20181;-69
2023/09/18 08:05:57;;;;;;;13.75;9.25;;;;;;;25.71;60.25;95369.69;4784676;29;20241;-69
2023/09/18 08:08:23;;;;;;;12.57;9.20;;;;;;;25.90;58.54;95365.09;4784935;29;20180;-69
2023/09/18 08:10:49;;;;;;;15.43;9.82;;;;;;;25.80;58.66;95367.13;4785029;29;20188;-69
2023/09/18 08:13:15;;;;;;;12.60;9.05;;;;;;;25.59;58.09;95347.78;4801454;29;20236;-69
2023/09/18 08:15:41;;;;;;;12.38;8.63;;;;;;;25.46;58.31;95354.66;4785378;29;20196;-69
2023/09/18 08:18:06;;;;;;;13.18;8.57;;;;;;;25.41;59.10;95362.84;4790711;29;20193;-69
2023/09/18 08:20:32;;;;;;;15.95;7.30;;;;;;;24.92;59.63;95357.81;4785292;29;20897;-68
2023/09/18 08:23:01;;;;;;;12.40;9.20;;;;;;;24.92;60.91;95343.56;4791599;29;20188;-68
2023/09/18 08:25:26;;;;;;;12.18;9.45;;;;;;;25.26;59.83;95335.28;4785142;29;20172;-68
2023/09/18 08:27:52;;;;;;;13.02;8.90;;;;;;;25.83;58.69;95343.09;4784761;29;20751;-68
2023/09/18 08:30:20;;;;;;;14.50;9.45;;;;;;;25.79;57.26;95342.06;4784889;30;20180;-68
2023/09/18 08:32:47;;;;;;;16.52;8.82;;;;;;;25.60;58.03;95345.91;4784844;30;20244;-68
2023/09/18 08:35:14;;;;;;;12.13;8.45;;;;;;;25.62;57.92;95349.88;4784701;29;20367;-69
2023/09/18 08:37:41;;;;;;;13.02;8.48;;;;;;;25.48;57.53;95343.59;4788403;29;20263;-68
2023/09/18 08:40:09;;;;;;;14.50;8.48;;;;;;;25.35;58.65;95341.63;4774250;29;20636;-68
2023/09/18 08:42:39;;;;;;;12.43;9.00;;;;;;;25.49;58.00;95331.72;4786848;29;20317;-69
2023/09/18 08:45:09;;;;;;;11.95;8.80;;;;;;;25.76;57.82;95328.38;4782647;29;20571;-68
2023/09/18 08:47:35;;;;;;;15.10;8.38;;;;;;;25.83;57.38;95335.00;4784751;29;20579;-69
2023/09/18 08:50:01;;;;;;;10.23;7.32;;;;;;;26.13;56.62;95327.44;4801768;29;20188;-70
2023/09/18 08:52:27;;;;;;;11.20;7.72;;;;;;;26.32;55.45;95330.91;4799096;29;21065;-70
2023/09/18 08:54:56;;;;;;;19.05;8.30;;;;;;;26.24;54.62;95316.19;4795466;29;20689;-69
2023/09/18 08:57:22;;;;;;;11.38;7.57;;;;;;;26.18;55.18;95327.38;4790279;29;20189;-69
2023/09/18 08:59:50;;;;;;;13.15;8.30;;;;;;;26.04;55.78;95321.94;4797411;29;20188;-70
2023/09/18 09:02:16;;;;;;;14.60;8.07;;;;;;;26.14;55.80;95323.66;4800332;29;20172;-69
2023/09/18 09:04:41;;;;;;;10.00;7.80;;;;;;;25.92;54.86;95321.63;4796609;29;20568;-70
2023/09/18 09:07:07;;;;;;;12.55;8.30;;;;;;;25.95;54.90;95323.72;4778745;29;20188;-69
2023/09/18 09:09:33;;;;;;;13.27;8.38;;;;;;;25.92;55.21;95314.31;4793845;29;20192;-68
2023/09/18 09:11:58;;;;;;;14.98;8.13;;;;;;;25.60;56.15;95303.50;4785694;29;20288;-68
2023/09/18 09:14:30;;;;;;;10.50;7.78;;;;;;;25.75;55.91;95318.66;4787932;30;20653;-68
2023/09/18 09:16:57;;;;;;;10.80;6.93;;;;;;;25.67;55.16;95314.75;4788023;29;20665;-67
2023/09/18 09:19:31;;;;;;;11.20;7.47;;;;;;;25.80;55.60;95308.59;4787366;30;20408;-67
2023/09/18 09:21:58;;;;;;;10.70;7.53;;;;;;;26.16;54.68;95316.88;4788932;29;20584;-67
2023/09/18 09:24:43;;;;;;;9.48;7.13;;;;;;;26.14;53.52;95300.16;4794160;29;20205;-68
2023/09/18 09:27:14;;;;;;;12.32;7.60;;;;;;;26.05;53.95;95311.94;4792174;29;20176;-68
2023/09/18 09:29:39;;;;;;;11.75;7.18;;;;;;;25.92;54.12;95311.63;4794730;29;20196;-68
2023/09/18 09:32:17;;;;;;;8.65;6.80;;;;;;;26.04;53.74;95307.63;4795577;29;20575;-69
2023/09/18 09:34:43;;;;;;;11.10;6.82;;;;;;;25.93;53.99;95307.03;4795732;29;20207;-69
2023/09/18 09:37:10;;;;;;;10.95;6.50;;;;;;;25.93;54.80;95288.94;4792499;29;20176;-69
2023/09/18 09:39:48;;;;;;;9.45;7.07;;;;;;;25.98;54.11;95287.25;4791867;29;20621;-68
2023/09/18 09:42:18;;;;;;;10.02;7.30;;;;;;;25.88;54.09;95309.81;4794818;29;20636;-68
2023/09/18 09:44:47;;;;;;;8.38;5.93;;;;;;;25.63;53.03;95308.31;4787700;29;20177;-68
2023/09/18 09:47:14;;;;;;;9.70;6.18;;;;;;;25.62;53.26;95298.63;4800465;29;20184;-68
2023/09/18 09:49:47;;;;;;;9.23;6.18;;;;;;;25.32;53.63;95278.31;4791987;29;20650;-68
2023/09/18 09:52:22;;;;;;;8.60;5.80;;;;;;;25.31;54.97;95284.81;4792929;29;20181;-68
2023/09/18 09:54:47;;;;;;;11.68;7.25;;;;;;;25.43;54.96;95265.47;4786630;29;20227;-68
2023/09/18 09:57:13;;;;;;;8.95;6.90;;;;;;;25.70;55.34;95289.06;4786748;29;20653;-68
2023/09/18 09:59:39;;;;;;;11.10;7.07;;;;;;;25.68;55.03;95291.28;4786511;29;20565;-68
2023/09/18 10:02:09;;;;;;;11.43;6.18;;;;;;;25.49;55.36;95285.88;4785512;29;20602;-68
2023/09/18 10:04:36;;;;;;;13.38;7.28;;;;;;;25.60;55.57;95279.25;4786488;29;20181;-68
2023/09/18 10:07:09;;;;;;;10.65;6.35;;;;;;;25.43;54.43;95278.94;4786499;29;20176;-68
2023/09/18 10:09:39;;;;;;;9.65;6.53;;;;;;;25.45;54.88;95271.38;4784499;29;20238;-68
2023/09/18 10:12:11;;;;;;;8.50;6.45;;;;;;;25.54;55.16;95278.50;4786408;29;20255;-68
2023/09/18 10:14:38;;;;;;;9.23;6.47;;;;;;;25.22;54.47;95246.13;4786212;29;20577;-68
2023/09/18 10:17:17;;;;;;;9.18;5.97;;;;;;;25.43;54.47;95271.66;4786292;29;20189;-68
2023/09/18 10:19:53;;;;;;;7.75;5.22;;;;;;;25.48;53.52;95274.28;4786313;29;20674;-68
2023/09/18 10:22:28;;;;;;;10.40;5.80;;;;;;;25.49;53.49;95267.81;4784286;29;20180;-68
2023/09/18 10:25:00;;;;;;;8.23;5.57;;;;;;;25.40;53.94;95263.38;4785973;29;20217;-68
2023/09/18 10:27:26;;;;;;;11.45;6.15;;;;;;;25.28;53.94;95260.31;4785963;29;20192;-68
2023/09/18 10:29:54;;;;;;;7.60;5.20;;;;;;;25.29;54.13;95237.66;4783998;29;20184;-68
2023/09/18 10:32:21;;;;;;;7.88;4.80;;;;;;;25.25;53.18;95237.47;4803951;29;20191;-68
2023/09/18 10:34:48;;;;;;;10.80;5.32;;;;;;;24.95;54.10;95238.72;4803850;29;20207;-68
2023/09/18 10:37:15;;;;;;;8.25;5.65;;;;;;;24.99;54.66;95239.75;4803967;29;20649;-68
2023/09/18 10:39:41;;;;;;;8.15;4.97;;;;;;;24.86;54.17;95226.97;4804069;29;21967;-68
2023/09/18 10:42:08;;;;;;;9.45;5.78;;;;;;;24.98;55.07;95224.66;4803943;29;20196;-68
2023/09/18 10:44:34;;;;;;;6.60;5.30;;;;;;;25.24;54.75;95235.88;4803958;29;20184;-68
2023/09/18 10:47:02;;;;;;;6.70;5.50;;;;;;;25.23;54.06;95230.75;4803869;29;20208;-68
2023/09/18 10:49:28;;;;;;;7.60;4.88;;;;;;;25.13;53.46;95231.72;4803788;29;20195;-68
2023/09/18 10:51:55;;;;;;;6.45;5.15;;;;;;;25.19;53.35;95234.03;4803753;29;20215;-68
2023/09/18 10:54:23;;;;;;;9.40;5.20;;;;;;;25.24;52.96;95217.00;4787353;29;20568;-68
2023/09/18 10:56:49;;;;;;;11.73;5.65;;;;;;;25.19;52.86;95228.63;4803495;29;20240;-68
2023/09/18 10:59:16;;;;;;;10.05;5.35;;;;;;;25.26;53.12;95219.38;4803608;29;20187;-68
2023/09/18 11:01:41;;;;;;;6.40;4.65;;;;;;;25.30;53.18;95223.09;4787308;29;20212;-68
2023/09/18 11:04:09;;;;;;;6.30;4.38;;;;;;;25.30;52.88;95218.50;4803340;29;20250;-68
2023/09/18 11:06:53;;;;;;;6.82;4.88;;;;;;;25.14;53.57;95212.56;4803527;29;20183;-68
2023/09/18 11:09:27;;;;;;;8.20;4.95;;;;;;;25.31;53.58;95209.31;4803497;29;20547;-68
2023/09/18 11:12:04;;;;;;;5.75;4.40;;;;;;;25.35;52.18;95210.31;4803421;29;20269;-68
2023/09/18 11:14:56;;;;;;;6.55;4.55;;;;;;;25.03;53.24;95211.09;4803143;29;20755;-68
2023/09/18 11:17:40;;;;;;;6.60;3.92;;;;;;;24.94;52.76;95206.66;4803336;29;20191;-68
2023/09/18 11:20:23;;;;;;;13.43;3.67;;;;;;;24.78;52.59;95200.69;4803435;29;20202;-68